Time;durP1;ratioP1;P1;durP2;ratioP2;P2;SDS_P1;SDS_P2;PMS_P1;PMS_P2;Temp;Humidity;BMP_temperature;BMP_pressure;BME280_temperature;BME280_humidity;BME280_pressure;Samples;Min_cycle;Max_cycle;Signal;HPM_P1;HPM_P2
2024/01/28 07:29:11;;;;;;;10.25;3.72;;;;;;;;;;2086322;28;20896;-64
2024/01/28 07:30:12;;;;;;;7.47;3.63;;;;;;;;;;2083590;28;20715;-64
2024/01/28 07:31:14;;;;;;;6.90;3.35;;;;;;;;;;2084250;28;20317;-64
2024/01/28 07:32:16;;;;;;;8.45;3.75;;;;;;;;;;2073178;28;20223;-64
2024/01/28 07:34:18;;;;;;;6.20;3.25;;;;;;;;;;2082550;28;20567;-63
2024/01/28 07:35:20;;;;;;;6.25;3.25;;;;;;;;;;2079604;28;20291;-63
2024/01/28 07:36:21;;;;;;;8.65;2.88;;;;;;;;;;2083980;28;20192;-63
2024/01/28 07:37:24;;;;;;;7.43;2.60;;;;;;;;;;2082178;28;20212;-63
2024/01/28 07:38:25;;;;;;;4.72;2.35;;;;;;;;;;2080802;28;20658;-63
2024/01/28 07:39:27;;;;;;;9.18;1.90;;;;;;;;;;2080379;28;20199;-63
2024/01/28 07:40:28;;;;;;;4.47;2.40;;;;;;;;;;2080198;28;20193;-64
2024/01/28 07:41:34;;;;;;;4.82;2.95;;;;;;;;;;2080214;28;20227;-64
2024/01/28 07:42:36;;;;;;;6.93;2.50;;;;;;;;;;2082630;28;20609;-64
2024/01/28 07:43:37;;;;;;;6.25;2.88;;;;;;;;;;2080540;28;20196;-64
2024/01/28 07:44:38;;;;;;;6.22;2.70;;;;;;;;;;2096306;28;20196;-66
2024/01/28 07:45:42;;;;;;;3.78;2.20;;;;;;;;;;2090445;28;20257;-67
2024/01/28 07:46:43;;;;;;;3.58;1.90;;;;;;;;;;2080745;28;20241;-67
2024/01/28 07:47:45;;;;;;;6.18;2.60;;;;;;;;;;2081237;28;20196;-67
2024/01/28 07:48:46;;;;;;;5.53;2.30;;;;;;;;;;2078093;28;20726;-67
2024/01/28 07:49:47;;;;;;;5.10;2.40;;;;;;;;;;2080855;28;20204;-67
2024/01/28 07:50:49;;;;;;;5.32;2.17;;;;;;;;;;2080648;28;20201;-64
2024/01/28 07:51:51;;;;;;;5.45;2.40;;;;;;;;;;2080719;28;20277;-65
2024/01/28 07:52:53;;;;;;;4.43;2.00;;;;;;;;;;2081212;28;20656;-65
2024/01/28 07:53:54;;;;;;;6.43;2.20;;;;;;;;;;2081940;28;20214;-65
2024/01/28 07:54:56;;;;;;;5.15;2.03;;;;;;;;;;2093944;28;20205;-65
2024/01/28 07:55:57;;;;;;;3.65;1.95;;;;;;;;;;2095002;28;20464;-65
2024/01/28 07:57:00;;;;;;;6.45;2.72;;;;;;;;;;2081011;28;20301;-64
2024/01/28 07:58:01;;;;;;;5.05;2.30;;;;;;;;;;2080369;28;20295;-64
2024/01/28 07:59:03;;;;;;;4.53;1.85;;;;;;;;;;2081643;28;20193;-64
2024/01/28 08:00:05;;;;;;;8.55;2.40;;;;;;;;;;2082332;28;20821;-64
2024/01/28 08:01:06;;;;;;;5.60;2.40;;;;;;;;;;2081623;28;20249;-64
2024/01/28 08:02:08;;;;;;;3.53;1.65;;;;;;;;;;2078790;28;20231;-64
2024/01/28 08:03:09;;;;;;;4.70;2.00;;;;;;;;;;2080594;28;20197;-64
2024/01/28 08:04:11;;;;;;;3.53;1.83;;;;;;;;;;2082363;28;20279;-64
2024/01/28 08:05:12;;;;;;;3.42;1.52;;;;;;;;;;2077981;28;20204;-65
2024/01/28 08:06:14;;;;;;;4.65;2.00;;;;;;;;;;2081206;28;20248;-73
2024/01/28 08:07:15;;;;;;;3.55;2.05;;;;;;;;;;2077721;28;20217;-73
2024/01/28 08:08:17;;;;;;;4.75;1.65;;;;;;;;;;2078795;28;20232;-73
2024/01/28 08:09:18;;;;;;;6.20;2.00;;;;;;;;;;2078029;28;20182;-73
2024/01/28 08:10:19;;;;;;;4.85;1.92;;;;;;;;;;2078245;28;20219;-73
2024/01/28 08:11:21;;;;;;;2.58;1.50;;;;;;;;;;2081758;28;20391;-73
2024/01/28 08:12:22;;;;;;;4.25;2.10;;;;;;;;;;2073560;28;20213;-73
2024/01/28 08:13:23;;;;;;;4.63;1.90;;;;;;;;;;2081232;28;20194;-73
2024/01/28 08:14:27;;;;;;;7.05;2.40;;;;;;;;;;2081911;28;20673;-73
2024/01/28 08:15:29;;;;;;;5.50;1.73;;;;;;;;;;2081176;28;20630;-73
2024/01/28 08:16:30;;;;;;;3.97;1.90;;;;;;;;;;2079566;28;20193;-73
2024/01/28 08:17:32;;;;;;;3.28;1.90;;;;;;;;;;2080105;28;20274;-73
2024/01/28 08:18:34;;;;;;;6.47;2.17;;;;;;;;;;2081927;28;20684;-73
2024/01/28 08:19:37;;;;;;;4.47;2.40;;;;;;;;;;2081728;28;20195;-73
2024/01/28 08:20:38;;;;;;;5.00;1.85;;;;;;;;;;2083041;28;20197;-72
2024/01/28 08:21:40;;;;;;;4.60;2.47;;;;;;;;;;2081516;28;20732;-71
2024/01/28 08:22:41;;;;;;;4.43;2.15;;;;;;;;;;2082100;28;20205;-71
2024/01/28 08:23:43;;;;;;;3.85;2.05;;;;;;;;;;2080624;28;20941;-72
2024/01/28 08:24:45;;;;;;;2.42;1.60;;;;;;;;;;2081324;28;20287;-72
2024/01/28 08:25:46;;;;;;;2.97;1.85;;;;;;;;;;2081108;28;20575;-72
2024/01/28 08:26:48;;;;;;;2.90;1.50;;;;;;;;;;2080661;28;20213;-71
2024/01/28 08:27:49;;;;;;;3.28;1.63;;;;;;;;;;2080593;28;20197;-72
2024/01/28 08:28:51;;;;;;;4.35;2.45;;;;;;;;;;2082806;28;20279;-72
2024/01/28 08:29:53;;;;;;;5.03;2.28;;;;;;;;;;2082000;28;20219;-71
2024/01/28 08:30:54;;;;;;;3.45;1.45;;;;;;;;;;2081427;28;20189;-70
2024/01/28 08:31:57;;;;;;;3.67;1.73;;;;;;;;;;2080084;28;20243;-73
2024/01/28 08:32:59;;;;;;;3.10;1.50;;;;;;;;;;2081549;28;20633;-73
2024/01/28 08:34:00;;;;;;;4.95;1.60;;;;;;;;;;2078827;28;20258;-73
2024/01/28 08:35:03;;;;;;;2.75;1.67;;;;;;;;;;2080823;28;20192;-73
2024/01/28 08:36:04;;;;;;;2.42;1.20;;;;;;;;;;2080532;28;20197;-73
2024/01/28 08:37:06;;;;;;;2.47;1.23;;;;;;;;;;2083214;28;20220;-73
2024/01/28 08:38:07;;;;;;;2.10;1.00;;;;;;;;;;2079728;28;20189;-72
2024/01/28 08:39:09;;;;;;;3.25;1.65;;;;;;;;;;2080569;28;20843;-73
2024/01/28 08:40:11;;;;;;;8.75;1.23;;;;;;;;;;2077956;28;20224;-73
2024/01/28 08:41:12;;;;;;;4.57;1.80;;;;;;;;;;2082563;28;20832;-73
2024/01/28 08:42:15;;;;;;;2.90;1.58;;;;;;;;;;2081951;28;20216;-73
2024/01/28 08:43:17;;;;;;;6.57;2.65;;;;;;;;;;2081750;28;20243;-72
2024/01/28 08:44:20;;;;;;;5.25;2.85;;;;;;;;;;2081446;28;20201;-73
2024/01/28 08:45:21;;;;;;;8.65;3.80;;;;;;;;;;2087718;28;20193;-73
2024/01/28 08:46:23;;;;;;;6.65;3.72;;;;;;;;;;2092688;28;20215;-73
2024/01/28 08:47:24;;;;;;;9.68;4.63;;;;;;;;;;2075219;28;20260;-72
2024/01/28 08:48:26;;;;;;;5.88;3.63;;;;;;;;;;2075373;28;20200;-73
2024/01/28 08:49:28;;;;;;;18.17;5.00;;;;;;;;;;2076826;28;20200;-72
2024/01/28 08:50:29;;;;;;;8.07;5.13;;;;;;;;;;2076183;28;20193;-72
2024/01/28 08:51:31;;;;;;;11.38;6.15;;;;;;;;;;2075419;28;20644;-72
2024/01/28 08:52:32;;;;;;;9.80;5.40;;;;;;;;;;2075687;28;20778;-72
2024/01/28 08:53:33;;;;;;;8.27;4.90;;;;;;;;;;2076587;28;20285;-72
2024/01/28 08:54:36;;;;;;;9.85;6.00;;;;;;;;;;2072340;28;20210;-65
2024/01/28 08:55:38;;;;;;;8.73;5.40;;;;;;;;;;2073354;28;20193;-65
2024/01/28 08:56:39;;;;;;;7.20;4.20;;;;;;;;;;2073769;28;20292;-65
2024/01/28 08:57:40;;;;;;;9.18;5.18;;;;;;;;;;2074410;28;20201;-65
2024/01/28 08:58:42;;;;;;;9.48;5.45;;;;;;;;;;2072250;28;20228;-65
2024/01/28 08:59:43;;;;;;;6.32;3.00;;;;;;;;;;2072921;28;20767;-65
2024/01/28 09:00:44;;;;;;;5.32;2.45;;;;;;;;;;2075894;28;20286;-65
2024/01/28 09:01:47;;;;;;;6.72;3.40;;;;;;;;;;2074531;28;20245;-65
2024/01/28 09:02:49;;;;;;;4.97;2.40;;;;;;;;;;2076333;28;20185;-65
2024/01/28 09:03:51;;;;;;;5.68;2.75;;;;;;;;;;2072072;28;20221;-65
2024/01/28 09:04:52;;;;;;;4.35;2.28;;;;;;;;;;2072822;28;20194;-65
2024/01/28 09:05:53;;;;;;;4.13;2.55;;;;;;;;;;2076029;28;20216;-65
2024/01/28 09:06:55;;;;;;;3.22;1.42;;;;;;;;;;2075675;28;20317;-65
2024/01/28 09:07:56;;;;;;;2.95;1.52;;;;;;;;;;2072147;28;20202;-65
2024/01/28 09:09:00;;;;;;;4.40;1.88;;;;;;;;;;2075270;28;20243;-66
2024/01/28 09:10:01;;;;;;;3.28;1.70;;;;;;;;;;2076229;28;20726;-66
2024/01/28 09:11:03;;;;;;;4.15;1.55;;;;;;;;;;2076911;28;20208;-66
2024/01/28 09:12:05;;;;;;;5.05;1.27;;;;;;;;;;2073493;28;20830;-66
2024/01/28 09:13:06;;;;;;;2.75;1.10;;;;;;;;;;2072223;28;20247;-65
2024/01/28 09:14:07;;;;;;;1.85;1.10;;;;;;;;;;2072593;28;20236;-65
2024/01/28 09:15:09;;;;;;;2.40;1.10;;;;;;;;;;2075988;28;20274;-66
2024/01/28 09:16:11;;;;;;;4.38;1.50;;;;;;;;;;2090556;28;20239;-66
2024/01/28 09:17:12;;;;;;;7.28;1.13;;;;;;;;;;2090721;28;20729;-66
2024/01/28 09:18:14;;;;;;;10.07;1.55;;;;;;;;;;2072465;28;20205;-65
2024/01/28 09:19:16;;;;;;;3.08;1.63;;;;;;;;;;2074403;28;20689;-66
2024/01/28 09:20:17;;;;;;;4.20;1.85;;;;;;;;;;2076225;28;20201;-66
2024/01/28 09:21:19;;;;;;;3.20;1.40;;;;;;;;;;2077246;28;20193;-64
2024/01/28 09:22:20;;;;;;;2.67;1.67;;;;;;;;;;2074974;28;20291;-64
2024/01/28 09:23:21;;;;;;;9.15;4.15;;;;;;;;;;2076389;28;20221;-63
2024/01/28 09:24:23;;;;;;;5.55;2.90;;;;;;;;;;2076192;28;20200;-63
2024/01/28 09:25:26;;;;;;;30.05;18.27;;;;;;;;;;2076484;28;21087;-67
2024/01/28 09:26:27;;;;;;;5.32;2.53;;;;;;;;;;2075293;28;20189;-67
2024/01/28 09:27:29;;;;;;;4.80;2.33;;;;;;;;;;2076070;28;20197;-66
2024/01/28 09:28:31;;;;;;;3.35;2.05;;;;;;;;;;2075070;28;20288;-65
2024/01/28 09:29:32;;;;;;;3.97;1.77;;;;;;;;;;2072285;28;20273;-66
2024/01/28 09:30:34;;;;;;;2.72;1.80;;;;;;;;;;2073152;28;20216;-67
2024/01/28 09:31:36;;;;;;;4.18;1.33;;;;;;;;;;2074805;28;20190;-66
2024/01/28 09:32:37;;;;;;;2.42;1.40;;;;;;;;;;2075974;28;20732;-66
2024/01/28 09:33:39;;;;;;;5.57;1.45;;;;;;;;;;2075345;28;21197;-64
2024/01/28 09:34:41;;;;;;;4.40;1.83;;;;;;;;;;2077757;28;20272;-64
2024/01/28 09:35:44;;;;;;;2.47;1.20;;;;;;;;;;2072192;28;20243;-67
2024/01/28 09:36:45;;;;;;;3.17;1.20;;;;;;;;;;2074474;28;20243;-66
2024/01/28 09:37:47;;;;;;;5.30;1.63;;;;;;;;;;2068504;28;20255;-69
2024/01/28 09:38:49;;;;;;;1.67;1.00;;;;;;;;;;2076942;28;20251;-69
2024/01/28 09:39:50;;;;;;;2.90;1.10;;;;;;;;;;2076724;28;20197;-68
2024/01/28 09:40:52;;;;;;;2.60;1.20;;;;;;;;;;2075730;28;20193;-69
2024/01/28 09:41:56;;;;;;;2.30;0.80;;;;;;;;;;2075361;28;20228;-69
2024/01/28 09:43:08;;;;;;;2.03;1.00;;;;;;;;;;2074983;28;20297;-69
2024/01/28 09:44:10;;;;;;;1.90;0.90;;;;;;;;;;2074922;28;20197;-69
2024/01/28 09:45:11;;;;;;;1.90;1.00;;;;;;;;;;2075257;28;20243;-69
2024/01/28 09:46:13;;;;;;;1.60;0.90;;;;;;;;;;2074146;28;20799;-69
2024/01/28 09:47:15;;;;;;;2.58;1.10;;;;;;;;;;2075048;28;20214;-68
2024/01/28 09:48:16;;;;;;;2.28;0.95;;;;;;;;;;2077319;28;20664;-69
2024/01/28 09:49:19;;;;;;;1.80;0.93;;;;;;;;;;2075006;28;20365;-68
2024/01/28 09:50:21;;;;;;;3.72;1.42;;;;;;;;;;2074764;28;20241;-68
2024/01/28 09:51:23;;;;;;;1.85;1.00;;;;;;;;;;2075539;28;20198;-69
2024/01/28 09:52:24;;;;;;;3.80;1.10;;;;;;;;;;2075502;28;20253;-68
2024/01/28 09:53:25;;;;;;;1.77;0.90;;;;;;;;;;2074012;28;20198;-69
2024/01/28 09:54:27;;;;;;;2.45;1.02;;;;;;;;;;2073218;28;20202;-68
2024/01/28 09:55:28;;;;;;;1.42;0.80;;;;;;;;;;2075479;28;20673;-66
2024/01/28 09:56:31;;;;;;;1.63;0.93;;;;;;;;;;2076625;28;20243;-68
2024/01/28 09:57:32;;;;;;;1.60;0.90;;;;;;;;;;2075926;28;20258;-68
2024/01/28 09:58:33;;;;;;;2.35;1.00;;;;;;;;;;2074065;28;20343;-65
2024/01/28 09:59:35;;;;;;;3.05;0.90;;;;;;;;;;2074798;28;20188;-66
2024/01/28 10:00:37;;;;;;;1.92;0.95;;;;;;;;;;2071935;28;20247;-65
2024/01/28 10:01:42;;;;;;;4.90;1.00;;;;;;;;;;2071285;28;20194;-65
2024/01/28 10:02:44;;;;;;;2.25;0.98;;;;;;;;;;2075226;28;20212;-65
2024/01/28 10:03:46;;;;;;;2.17;1.05;;;;;;;;;;2072622;28;20581;-65
2024/01/28 10:04:48;;;;;;;1.98;1.10;;;;;;;;;;2077233;28;20228;-65
2024/01/28 10:05:50;;;;;;;2.15;0.80;;;;;;;;;;2076439;28;20833;-65
2024/01/28 10:06:53;;;;;;;2.03;1.00;;;;;;;;;;2072527;28;20213;-69
2024/01/28 10:07:59;;;;;;;1.77;1.13;;;;;;;;;;2074195;28;20338;-69
2024/01/28 10:09:00;;;;;;;1.70;0.90;;;;;;;;;;2074455;28;20657;-69
2024/01/28 10:10:02;;;;;;;2.15;1.00;;;;;;;;;;2074635;28;20193;-68
2024/01/28 10:11:04;;;;;;;2.50;1.20;;;;;;;;;;2075159;28;20197;-68
2024/01/28 10:12:08;;;;;;;3.63;1.98;;;;;;;;;;2071173;28;20221;-68
2024/01/28 10:13:09;;;;;;;2.72;1.20;;;;;;;;;;2072035;28;20225;-68
2024/01/28 10:14:11;;;;;;;3.05;0.90;;;;;;;;;;2076697;28;20197;-68
2024/01/28 10:15:16;;;;;;;2.67;0.90;;;;;;;;;;2073850;28;20218;-68
2024/01/28 10:16:24;;;;;;;1.95;1.10;;;;;;;;;;2075072;28;20197;-67
2024/01/28 10:17:26;;;;;;;17.35;9.25;;;;;;;;;;2071922;28;20216;-67
2024/01/28 10:18:27;;;;;;;2.40;1.10;;;;;;;;;;2075137;28;20229;-67
2024/01/28 10:19:29;;;;;;;3.67;0.90;;;;;;;;;;2074721;28;20201;-66
2024/01/28 10:20:30;;;;;;;5.63;2.30;;;;;;;;;;2075578;28;20674;-68
2024/01/28 10:21:32;;;;;;;2.35;1.42;;;;;;;;;;2071213;28;20202;-68
2024/01/28 10:22:33;;;;;;;3.08;1.40;;;;;;;;;;2071752;28;21006;-69
2024/01/28 10:23:36;;;;;;;2.88;1.13;;;;;;;;;;2072953;28;20201;-68
2024/01/28 10:24:41;;;;;;;2.60;1.17;;;;;;;;;;2074695;28;20202;-69
2024/01/28 10:25:45;;;;;;;2.45;1.25;;;;;;;;;;2076052;28;20735;-69
2024/01/28 10:26:47;;;;;;;3.15;1.17;;;;;;;;;;2074741;28;20220;-68
2024/01/28 10:27:48;;;;;;;2.00;1.08;;;;;;;;;;2073029;28;20697;-68
2024/01/28 10:28:51;;;;;;;2.30;1.20;;;;;;;;;;2076520;28;20256;-68
2024/01/28 10:29:52;;;;;;;2.38;1.40;;;;;;;;;;2070927;28;20229;-68
2024/01/28 10:30:54;;;;;;;6.35;1.52;;;;;;;;;;2075076;28;20205;-69
2024/01/28 10:32:01;;;;;;;2.70;1.35;;;;;;;;;;2090332;28;20302;-68
2024/01/28 10:33:03;;;;;;;3.13;2.08;;;;;;;;;;2089516;28;20211;-66
2024/01/28 10:34:04;;;;;;;7.63;1.58;;;;;;;;;;2075309;28;20782;-66
2024/01/28 10:35:12;;;;;;;2.28;1.23;;;;;;;;;;2074360;28;20233;-66
2024/01/28 10:36:15;;;;;;;3.40;1.60;;;;;;;;;;2074983;28;20197;-66
2024/01/28 10:37:17;;;;;;;3.25;1.60;;;;;;;;;;2074742;28;20267;-66
2024/01/28 10:38:20;;;;;;;2.55;1.40;;;;;;;;;;2074487;28;20220;-66
2024/01/28 10:39:22;;;;;;;4.22;1.60;;;;;;;;;;2078043;28;20197;-66
2024/01/28 10:40:27;;;;;;;3.10;1.60;;;;;;;;;;2074405;28;20299;-68
2024/01/28 10:41:29;;;;;;;4.15;1.20;;;;;;;;;;2073072;28;20664;-68
2024/01/28 10:42:34;;;;;;;2.60;1.10;;;;;;;;;;2077758;28;20292;-68
2024/01/28 10:43:37;;;;;;;2.30;1.17;;;;;;;;;;2077918;28;20707;-68
2024/01/28 10:44:47;;;;;;;2.25;1.20;;;;;;;;;;2074722;28;20709;-68
2024/01/28 10:45:50;;;;;;;3.20;1.35;;;;;;;;;;2075908;28;20193;-68
2024/01/28 10:46:54;;;;;;;3.40;1.45;;;;;;;;;;2075209;28;20243;-68
2024/01/28 10:47:59;;;;;;;4.70;1.42;;;;;;;;;;2075364;28;20760;-68
2024/01/28 10:49:02;;;;;;;2.53;1.40;;;;;;;;;;2078195;28;20254;-68
2024/01/28 10:50:05;;;;;;;3.55;1.58;;;;;;;;;;2076780;28;20209;-68
2024/01/28 10:51:08;;;;;;;3.50;1.42;;;;;;;;;;2073560;28;20224;-68
2024/01/28 10:52:13;;;;;;;3.60;1.65;;;;;;;;;;2074667;28;20253;-68
2024/01/28 10:53:14;;;;;;;2.20;1.10;;;;;;;;;;2073948;28;20204;-68
2024/01/28 10:54:16;;;;;;;3.35;1.48;;;;;;;;;;2074851;28;20200;-68
2024/01/28 10:55:18;;;;;;;3.58;1.40;;;;;;;;;;2074907;28;20213;-68
2024/01/28 10:56:20;;;;;;;2.40;1.30;;;;;;;;;;2071316;28;20276;-68
2024/01/28 10:57:23;;;;;;;1.85;0.98;;;;;;;;;;2074610;28;20689;-69
2024/01/28 10:58:24;;;;;;;1.95;1.10;;;;;;;;;;2073659;28;20787;-67
2024/01/28 10:59:26;;;;;;;3.15;1.30;;;;;;;;;;2071464;28;20300;-67
2024/01/28 11:00:28;;;;;;;2.85;1.20;;;;;;;;;;2072495;28;20273;-67
2024/01/28 11:01:31;;;;;;;4.70;1.67;;;;;;;;;;2074448;28;20193;-67
2024/01/28 11:02:33;;;;;;;1.60;0.93;;;;;;;;;;2073550;28;20204;-65
2024/01/28 11:03:35;;;;;;;11.05;5.93;;;;;;;;;;2074529;28;20228;-66
2024/01/28 11:04:37;;;;;;;8.60;4.65;;;;;;;;;;2074716;28;20193;-70
2024/01/28 11:05:39;;;;;;;2.72;1.75;;;;;;;;;;2073564;28;20205;-67
2024/01/28 11:06:41;;;;;;;2.58;1.50;;;;;;;;;;2074927;28;20204;-69
2024/01/28 11:07:42;;;;;;;2.17;1.10;;;;;;;;;;2075364;28;20197;-69
2024/01/28 11:08:47;;;;;;;3.42;1.25;;;;;;;;;;2073596;28;20201;-69
2024/01/28 11:09:48;;;;;;;2.60;1.13;;;;;;;;;;2073767;28;20335;-69
2024/01/28 11:10:50;;;;;;;2.75;1.13;;;;;;;;;;2074469;28;20211;-69
2024/01/28 11:11:52;;;;;;;1.90;1.15;;;;;;;;;;2073740;28;20853;-64
2024/01/28 11:12:54;;;;;;;3.10;1.45;;;;;;;;;;2071458;28;20208;-63
2024/01/28 11:13:56;;;;;;;2.47;1.20;;;;;;;;;;2074160;28;20292;-64
2024/01/28 11:14:58;;;;;;;3.38;1.25;;;;;;;;;;2074964;28;20201;-63
2024/01/28 11:16:00;;;;;;;2.28;1.30;;;;;;;;;;2073200;28;20278;-64
2024/01/28 11:17:01;;;;;;;2.80;1.30;;;;;;;;;;2073877;28;20235;-64
2024/01/28 11:18:06;;;;;;;2.10;1.30;;;;;;;;;;2071385;28;20289;-64
2024/01/28 11:19:10;;;;;;;3.95;1.10;;;;;;;;;;2074256;28;20197;-64
2024/01/28 11:20:15;;;;;;;3.03;1.10;;;;;;;;;;2074267;28;20201;-64
2024/01/28 11:21:18;;;;;;;2.08;1.30;;;;;;;;;;2075073;28;20204;-64
2024/01/28 11:22:20;;;;;;;2.70;1.25;;;;;;;;;;2073045;28;20232;-64
2024/01/28 11:23:21;;;;;;;2.72;1.20;;;;;;;;;;2075900;28;20190;-64
2024/01/28 11:24:22;;;;;;;2.95;1.20;;;;;;;;;;2074762;28;20818;-64
2024/01/28 11:25:25;;;;;;;2.22;1.10;;;;;;;;;;2073451;28;20833;-64
2024/01/28 11:26:26;;;;;;;2.45;1.30;;;;;;;;;;2072617;28;20205;-64
2024/01/28 11:27:30;;;;;;;2.58;1.20;;;;;;;;;;2073569;28;20285;-64
2024/01/28 11:28:32;;;;;;;1.95;1.02;;;;;;;;;;2074103;28;20724;-64
2024/01/28 11:29:34;;;;;;;2.33;1.30;;;;;;;;;;2073775;28;20197;-64
2024/01/28 11:30:37;;;;;;;2.65;1.35;;;;;;;;;;2075230;28;20205;-64
2024/01/28 11:31:40;;;;;;;2.05;1.05;;;;;;;;;;2074094;28;20185;-64
2024/01/28 11:32:41;;;;;;;2.80;1.45;;;;;;;;;;2071259;28;20224;-64
2024/01/28 11:33:45;;;;;;;3.03;1.25;;;;;;;;;;2071918;28;20198;-64
2024/01/28 11:34:47;;;;;;;3.10;1.30;;;;;;;;;;2075248;28;20197;-64
2024/01/28 11:35:51;;;;;;;1.80;0.98;;;;;;;;;;2071089;28;20198;-64
2024/01/28 11:36:53;;;;;;;2.85;1.20;;;;;;;;;;2074176;28;20267;-64
2024/01/28 11:37:58;;;;;;;2.75;1.00;;;;;;;;;;2072705;28;20204;-64
2024/01/28 11:39:02;;;;;;;7.38;1.00;;;;;;;;;;2073050;28;20529;-64
2024/01/28 11:40:05;;;;;;;2.80;1.23;;;;;;;;;;2078357;28;20193;-64
2024/01/28 11:41:09;;;;;;;3.70;1.10;;;;;;;;;;2077890;28;20542;-64
2024/01/28 11:42:11;;;;;;;4.15;1.20;;;;;;;;;;2072716;28;20214;-64
2024/01/28 11:43:12;;;;;;;2.00;1.13;;;;;;;;;;2074069;28;20221;-64
2024/01/28 11:44:15;;;;;;;3.03;1.40;;;;;;;;;;2073837;28;20247;-64
2024/01/28 11:45:16;;;;;;;4.55;1.35;;;;;;;;;;2074085;28;20202;-64
2024/01/28 11:46:19;;;;;;;3.67;1.00;;;;;;;;;;2073180;28;20201;-64
2024/01/28 11:47:20;;;;;;;3.65;1.40;;;;;;;;;;2073479;28;20217;-64
2024/01/28 11:48:22;;;;;;;4.10;1.75;;;;;;;;;;2074601;28;20223;-64
2024/01/28 11:49:23;;;;;;;1.98;0.95;;;;;;;;;;2074340;28;20787;-64
2024/01/28 11:50:25;;;;;;;3.47;1.20;;;;;;;;;;2075320;28;20767;-62
2024/01/28 11:51:27;;;;;;;3.10;1.08;;;;;;;;;;2073251;28;20202;-63
2024/01/28 11:52:28;;;;;;;3.47;1.60;;;;;;;;;;2076369;28;20282;-62
2024/01/28 11:53:30;;;;;;;8.70;5.57;;;;;;;;;;2076613;28;20201;-62
2024/01/28 11:54:32;;;;;;;4.18;1.40;;;;;;;;;;2071240;28;20202;-62
2024/01/28 11:55:33;;;;;;;2.78;1.58;;;;;;;;;;2072479;28;20637;-62
2024/01/28 11:56:34;;;;;;;3.35;1.20;;;;;;;;;;2074594;28;20328;-62
2024/01/28 11:57:36;;;;;;;4.25;1.25;;;;;;;;;;2074125;28;20645;-63
2024/01/28 11:58:37;;;;;;;3.35;1.60;;;;;;;;;;2073242;28;20205;-62
2024/01/28 11:59:39;;;;;;;2.38;1.50;;;;;;;;;;2074735;28;20205;-63
2024/01/28 12:00:41;;;;;;;2.70;1.55;;;;;;;;;;2076044;28;20284;-63
2024/01/28 12:01:42;;;;;;;3.08;1.55;;;;;;;;;;2074346;28;20230;-63
2024/01/28 12:02:44;;;;;;;2.85;1.15;;;;;;;;;;2074726;28;20194;-63
2024/01/28 12:03:45;;;;;;;1.83;0.90;;;;;;;;;;2074732;28;20194;-63
2024/01/28 12:04:47;;;;;;;3.25;1.38;;;;;;;;;;2074841;28;20281;-63
2024/01/28 12:05:48;;;;;;;2.17;1.00;;;;;;;;;;2074503;28;20657;-63
2024/01/28 12:06:49;;;;;;;5.03;1.20;;;;;;;;;;2069796;28;20752;-63
2024/01/28 12:07:53;;;;;;;2.65;1.30;;;;;;;;;;2071142;28;20249;-63
2024/01/28 12:08:55;;;;;;;2.95;1.00;;;;;;;;;;2073318;28;20215;-63
2024/01/28 12:09:58;;;;;;;2.72;1.42;;;;;;;;;;2072912;28;20194;-62
2024/01/28 12:11:02;;;;;;;2.83;1.10;;;;;;;;;;2073438;28;20198;-63
2024/01/28 12:12:06;;;;;;;2.17;1.13;;;;;;;;;;2070647;28;20224;-63
2024/01/28 12:13:09;;;;;;;1.85;1.00;;;;;;;;;;2074827;28;20197;-63
2024/01/28 12:14:11;;;;;;;1.60;1.02;;;;;;;;;;2074925;28;20244;-62
2024/01/28 12:15:13;;;;;;;2.95;1.15;;;;;;;;;;2071279;28;20792;-62
2024/01/28 12:16:21;;;;;;;3.17;1.40;;;;;;;;;;2071448;28;20632;-62
2024/01/28 12:17:23;;;;;;;1.90;1.20;;;;;;;;;;2070443;28;20221;-63
2024/01/28 12:18:31;;;;;;;3.58;1.38;;;;;;;;;;2071372;28;20201;-62
2024/01/28 12:19:33;;;;;;;2.60;1.40;;;;;;;;;;2072767;28;20224;-63
2024/01/28 12:20:34;;;;;;;4.47;1.50;;;;;;;;;;2076064;28;20694;-63
2024/01/28 12:21:35;;;;;;;5.18;2.08;;;;;;;;;;2074620;28;20558;-62
2024/01/28 12:22:37;;;;;;;7.45;2.33;;;;;;;;;;2076762;28;20232;-62
2024/01/28 12:23:39;;;;;;;5.70;2.08;;;;;;;;;;2077384;28;20193;-63
2024/01/28 12:24:46;;;;;;;2.80;1.23;;;;;;;;;;2077065;28;20212;-63
2024/01/28 12:25:49;;;;;;;3.03;1.40;;;;;;;;;;2075096;28;20229;-62
2024/01/28 12:26:50;;;;;;;4.75;1.42;;;;;;;;;;2066413;28;21689;-63
2024/01/28 12:27:51;;;;;;;3.92;2.00;;;;;;;;;;2076545;28;20219;-62
2024/01/28 12:28:53;;;;;;;3.00;1.33;;;;;;;;;;2076984;28;20196;-63
2024/01/28 12:29:55;;;;;;;2.75;1.30;;;;;;;;;;2076514;28;20204;-63
2024/01/28 12:30:56;;;;;;;2.42;1.20;;;;;;;;;;2076345;28;20587;-63
2024/01/28 12:31:59;;;;;;;2.72;1.50;;;;;;;;;;2075947;28;20304;-62
2024/01/28 12:33:01;;;;;;;3.10;1.42;;;;;;;;;;2078249;28;20675;-63
2024/01/28 12:34:12;;;;;;;3.30;1.30;;;;;;;;;;2076863;28;20197;-63
2024/01/28 12:35:14;;;;;;;2.90;1.40;;;;;;;;;;2077349;28;20230;-62
2024/01/28 12:36:15;;;;;;;2.53;1.20;;;;;;;;;;2076617;28;20220;-62
2024/01/28 12:37:19;;;;;;;2.65;1.25;;;;;;;;;;2075724;28;20213;-62
2024/01/28 12:38:24;;;;;;;4.78;1.38;;;;;;;;;;2074014;28;20770;-62
2024/01/28 12:39:25;;;;;;;3.28;1.60;;;;;;;;;;2074789;28;20247;-62
2024/01/28 12:40:26;;;;;;;2.22;1.00;;;;;;;;;;2074417;28;20288;-62
2024/01/28 12:41:28;;;;;;;2.50;1.23;;;;;;;;;;2075302;28;20193;-62
2024/01/28 12:42:30;;;;;;;4.55;1.50;;;;;;;;;;2072592;28;20216;-62
2024/01/28 12:43:31;;;;;;;2.95;1.35;;;;;;;;;;2076117;28;20719;-64
2024/01/28 12:44:33;;;;;;;2.70;1.40;;;;;;;;;;2076021;28;20209;-62
2024/01/28 12:45:34;;;;;;;3.33;1.20;;;;;;;;;;2078297;28;20289;-62
2024/01/28 12:46:36;;;;;;;4.10;1.38;;;;;;;;;;2076164;28;20213;-62
2024/01/28 12:47:37;;;;;;;1.98;1.08;;;;;;;;;;2076667;28;20594;-62
2024/01/28 12:48:39;;;;;;;3.00;1.40;;;;;;;;;;2075807;28;20299;-62
2024/01/28 12:49:40;;;;;;;4.30;1.70;;;;;;;;;;2075485;28;20208;-62
2024/01/28 12:50:43;;;;;;;2.45;1.30;;;;;;;;;;2072465;28;20206;-62
2024/01/28 12:51:45;;;;;;;11.63;6.55;;;;;;;;;;2072368;28;20198;-65
2024/01/28 12:52:46;;;;;;;3.78;1.70;;;;;;;;;;2076349;28;20200;-64
2024/01/28 12:53:51;;;;;;;3.53;2.05;;;;;;;;;;2072527;28;20296;-66
2024/01/28 12:54:53;;;;;;;3.17;1.80;;;;;;;;;;2074497;28;20205;-66
2024/01/28 12:55:54;;;;;;;2.90;1.50;;;;;;;;;;2076821;28;20201;-66
2024/01/28 12:56:57;;;;;;;3.05;1.70;;;;;;;;;;2092629;28;20273;-66
2024/01/28 12:57:58;;;;;;;2.60;1.40;;;;;;;;;;2083720;28;20200;-66
2024/01/28 12:58:59;;;;;;;2.65;1.33;;;;;;;;;;2073605;28;20205;-66
2024/01/28 13:00:02;;;;;;;2.28;1.20;;;;;;;;;;2072464;28;20337;-65
2024/01/28 13:01:04;;;;;;;2.83;1.50;;;;;;;;;;2072914;28;20208;-65
2024/01/28 13:02:06;;;;;;;3.60;1.42;;;;;;;;;;2070724;28;20241;-66
2024/01/28 13:03:08;;;;;;;2.85;1.55;;;;;;;;;;2076283;28;20331;-66
2024/01/28 13:04:10;;;;;;;4.25;1.90;;;;;;;;;;2075863;28;20585;-65
2024/01/28 13:05:12;;;;;;;3.30;1.60;;;;;;;;;;2075719;28;20210;-66
2024/01/28 13:06:14;;;;;;;2.80;1.42;;;;;;;;;;2075822;28;20255;-66
2024/01/28 13:07:15;;;;;;;4.72;2.03;;;;;;;;;;2070782;28;20227;-66
2024/01/28 13:08:17;;;;;;;5.15;2.20;;;;;;;;;;2075043;28;20189;-66
2024/01/28 13:09:18;;;;;;;3.00;1.63;;;;;;;;;;2072420;28;20270;-66
2024/01/28 13:10:20;;;;;;;3.92;1.80;;;;;;;;;;2075650;28;20257;-66
2024/01/28 13:11:21;;;;;;;2.72;1.40;;;;;;;;;;2075487;28;20197;-66
2024/01/28 13:12:24;;;;;;;2.85;1.50;;;;;;;;;;2072698;28;20217;-66
2024/01/28 13:13:27;;;;;;;5.07;1.40;;;;;;;;;;2074347;28;20202;-66
2024/01/28 13:14:28;;;;;;;4.35;1.48;;;;;;;;;;2074319;28;20206;-66
2024/01/28 13:15:30;;;;;;;4.35;1.40;;;;;;;;;;2076131;28;20255;-66
2024/01/28 13:16:31;;;;;;;3.20;1.20;;;;;;;;;;2076407;28;20223;-66
2024/01/28 13:17:36;;;;;;;3.95;1.52;;;;;;;;;;2072623;28;20706;-65
2024/01/28 13:18:38;;;;;;;2.53;1.25;;;;;;;;;;2076329;28;20240;-65
2024/01/28 13:19:40;;;;;;;2.33;1.10;;;;;;;;;;2074903;28;20617;-65
2024/01/28 13:20:41;;;;;;;2.58;1.50;;;;;;;;;;2074966;28;20599;-66
2024/01/28 13:21:43;;;;;;;8.02;1.30;;;;;;;;;;2071343;28;20549;-65
2024/01/28 13:22:44;;;;;;;3.03;1.27;;;;;;;;;;2072280;28;20201;-67
2024/01/28 13:23:46;;;;;;;3.83;1.38;;;;;;;;;;2072396;28;20247;-67
2024/01/28 13:24:52;;;;;;;2.35;1.13;;;;;;;;;;2075902;28;20227;-67
2024/01/28 13:25:54;;;;;;;2.85;1.27;;;;;;;;;;2075633;28;20197;-67
2024/01/28 13:26:55;;;;;;;2.72;1.38;;;;;;;;;;2075506;28;20303;-67
2024/01/28 13:27:57;;;;;;;3.00;1.10;;;;;;;;;;2075492;28;20241;-67
2024/01/28 13:28:58;;;;;;;2.67;1.30;;;;;;;;;;2091420;28;20199;-67
2024/01/28 13:30:00;;;;;;;3.90;1.40;;;;;;;;;;2092566;28;20203;-66
2024/01/28 13:31:01;;;;;;;2.50;1.48;;;;;;;;;;2076248;28;20204;-66
2024/01/28 13:32:04;;;;;;;2.03;1.13;;;;;;;;;;2075272;28;20248;-65
2024/01/28 13:33:05;;;;;;;2.58;1.10;;;;;;;;;;2076356;28;20201;-66
2024/01/28 13:34:07;;;;;;;1.95;1.35;;;;;;;;;;2076508;28;20189;-66
2024/01/28 13:35:09;;;;;;;2.63;1.40;;;;;;;;;;2071964;28;20233;-66
2024/01/28 13:36:11;;;;;;;2.63;1.23;;;;;;;;;;2074278;28;20190;-66
2024/01/28 13:37:13;;;;;;;3.38;1.35;;;;;;;;;;2067048;28;20316;-66
2024/01/28 13:38:14;;;;;;;3.47;1.40;;;;;;;;;;2075271;28;20202;-66
2024/01/28 13:39:15;;;;;;;2.95;1.23;;;;;;;;;;2075567;28;20190;-66
2024/01/28 13:40:17;;;;;;;3.78;1.67;;;;;;;;;;2076423;28;20578;-66
2024/01/28 13:41:18;;;;;;;2.97;1.10;;;;;;;;;;2075695;28;20193;-66
2024/01/28 13:42:20;;;;;;;2.50;1.30;;;;;;;;;;2076068;28;20216;-66